Nearby METAR Reports

 

KGSP - Greer/Spartansbg, South Carolina, USA
Distance from station: E 4mi, 6km
Updated: Sun, 05-Feb-2023 5:53pm EST
Clear
Clear
 Wind from SSW
Wind: SSW 9 mph , 15 km/h
Temperature: 54°F , 12°C
Dew Point: 37°F , 3°C
Humidity: 54%
Barometer: 30.09 inHg , 1019 hPa
Clouds: Clear
Visibility: 10 miles , 16 km
2023/02/05 22:53 KGSP 052253Z 21008KT 10SM CLR 12/03 A3009 RMK AO2 SLP192 T01170028
KGMU - Greenville, South Carolina, USA
Distance from station: SW 5mi, 8km
Updated: Sun, 05-Feb-2023 5:53pm EST
Clear
Clear
 Wind from SW
Wind: SW 8 mph , 13 km/h
Temperature: 55°F , 13°C
Dew Point: 37°F , 3°C
Humidity: 51%
Barometer: 30.10 inHg , 1019.3 hPa
Clouds: Clear
Visibility: 10 miles , 16 km
2023/02/05 22:53 KGMU 052253Z 22007KT 10SM CLR 13/03 A3010 RMK AO2 SLP194 T01330033
 
KGYH - Greenville, South Carolina, USA
Distance from station: SSW 11mi, 18km
Updated: Sun, 05-Feb-2023 5:47pm EST
Clear
Clear
 Wind from SW
Wind: SW 12 mph , 19 km/h
Temperature: 54°F , 12°C
Dew Point: 37°F , 3°C
Humidity: 54%
Barometer: 30.10 inHg , 1019.3 hPa
Clouds: Clear
Visibility: 10 miles , 16 km
2023/02/05 22:47 KGYH 052247Z 23010KT 10SM CLR 12/03 A3010
KSPA - Spartanburg, South Carolina, USA
Distance from station: E 20mi, 32km
Updated: Sun, 05-Feb-2023 5:55pm EST
Clear
Clear
 Wind from SSW
Wind: SSW 5 mph , 7 km/h
Temperature: 55°F , 13°C
Dew Point: 36°F , 2°C
Humidity: 47%
Barometer: 30.09 inHg , 1019 hPa
Clouds: Clear
Visibility: 10 miles , 16 km
2023/02/05 22:55 KSPA 052255Z AUTO 21004KT 10SM CLR 13/02 A3009 RMK AO2
 
KLQK - Pickens, South Carolina, USA
Distance from station: WSW 24mi, 39km
Updated: Sun, 05-Feb-2023 5:55pm EST
Clear
Clear
 Wind from SSW
Wind: SSW 5 mph , 7 km/h
Temperature: 54°F , 12°C
Dew Point: 39°F , 4°C
Humidity: 58%
Barometer: 30.09 inHg , 1019 hPa
Clouds: Clear
Visibility: 10 miles , 16 km
2023/02/05 22:55 KLQK 052255Z AUTO 20004KT 10SM CLR 12/04 A3009 RMK AO2 T01220038
KLUX - Laurens, South Carolina, USA
Distance from station: SE 33mi, 54km
Updated: Sun, 05-Feb-2023 5:55pm EST
Clear
Clear
 Wind from SW
Wind: SW 3 mph , 6 km/h
Temperature: 55°F , 13°C
Dew Point: 37°F , 3°C
Humidity: 51%
Barometer: 30.10 inHg , 1019.3 hPa
Clouds: Clear
Visibility: 10 miles , 16 km
2023/02/05 22:55 KLUX 052255Z AUTO 23003KT 10SM CLR 13/03 A3010 RMK AO2
 
KAND - Anderson, South Carolina, USA
Distance from station: SW 37mi, 59km
Updated: Sun, 05-Feb-2023 5:56pm EST
Clear
Clear
 Wind from SW
Wind: SW 6 mph , 9 km/h
Temperature: 55°F , 13°C
Dew Point: 39°F , 4°C
Humidity: 55%
Barometer: 30.11 inHg , 1019.6 hPa
Clouds: Clear
Visibility: 10 miles , 16 km
2023/02/05 22:56 KAND 052256Z AUTO 22005KT 10SM CLR 13/04 A3011 RMK AO2 SLP195 T01280044
KCEU - Clemson, South Carolina, USA
Distance from station: WSW 37mi, 60km
Updated: Sun, 05-Feb-2023 5:54pm EST
Clear
Clear
 Wind from varies
Wind: varies 5 mph , 7 km/h
Temperature: 55°F , 13°C
Dew Point: 39°F , 4°C
Humidity: 55%
Barometer: 30.10 inHg , 1019.3 hPa
Clouds: Clear
Visibility: 10 miles , 16 km
2023/02/05 22:54 KCEU 052254Z AUTO VRB04KT 10SM CLR 13/04 A3010 RMK AO2 SLP193 T01280039
 
KAVL - Asheville, North Carolina, USA
Distance from station: NNW 40mi, 64km
Updated: Sun, 05-Feb-2023 5:54pm EST
Clear
Clear
 Wind from S
Wind: S 5 mph , 7 km/h
Temperature: 50°F , 10°C
Wind Chill: 48°F , 9°C
Dew Point: 34°F , 1°C
Humidity: 54%
Barometer: 30.06 inHg , 1017.9 hPa
Clouds: Clear
Visibility: 10 miles , 16 km
2023/02/05 22:54 KAVL 052254Z 17004KT 10SM CLR 10/01 A3006 RMK AO2 SLP184 T01000011
KFQD - Rutherfordton, North Carolina, USA
Distance from station: NNE 41mi, 66km
Updated: Sun, 05-Feb-2023 5:55pm EST
Clear
Clear
 Wind from SSW
Wind: SSW 7 mph , 11 km/h
Temperature: 55°F , 13°C
Dew Point: 37°F , 3°C
Humidity: 51%
Barometer: 30.08 inHg , 1018.6 hPa
Clouds: Clear
Visibility: 10 miles , 16 km
2023/02/05 22:55 KFQD 052255Z AUTO 21006KT 10SM CLR 13/03 A3008 RMK AO2
 
KGRD - Greenwood, South Carolina, USA
Distance from station: S 45mi, 73km
Updated: Sun, 05-Feb-2023 5:56pm EST
Clear
Clear
 Wind from WSW
Wind: WSW 5 mph , 7 km/h
Temperature: 54°F , 12°C
Dew Point: 39°F , 4°C
Humidity: 58%
Barometer: 30.13 inHg , 1020.3 hPa
Clouds: Clear
Visibility: 10 miles , 16 km
2023/02/05 22:56 KGRD 052256Z AUTO 25004KT 10SM CLR 12/04 A3013 RMK AO2 SLP202 T01220044
KEHO - Shelby Muni, North Carolina, USA
Distance from station: ENE 46mi, 74km
Updated: Sun, 05-Feb-2023 6:15pm EST
Clear
Clear
 Wind from SSW
Wind: SSW 3 mph , 6 km/h
Temperature: 55°F , 13°C
Dew Point: 39°F , 4°C
Humidity: 55%
Barometer: 30.08 inHg , 1018.6 hPa
Clouds: Clear
Visibility: 10 miles , 16 km
2023/02/05 23:15 KEHO 052315Z AUTO 20003KT 10SM CLR 13/04 A3008 RMK AO2 T01250040